Time;durP1;ratioP1;P1;durP2;ratioP2;P2;SDS_P1;SDS_P2;PMS_P1;PMS_P2;Temp;Humidity;BMP_temperature;BMP_pressure;BME280_temperature;BME280_humidity;BME280_pressure;Samples;Min_cycle;Max_cycle;Signal;HPM_P1;HPM_P2
2023/08/24 00:00:22;;;;;;;47.90;26.88;;;;;;;;;;4953185;28;20441;-35
2023/08/24 00:02:49;;;;;;;70.78;38.47;;;;;;;;;;4942129;29;20077;-35
2023/08/24 00:05:16;;;;;;;77.85;46.22;;;;;;;;;;4932926;29;20039;-36
2023/08/24 00:07:43;;;;;;;97.15;57.05;;;;;;;;;;4936580;29;20541;-35
2023/08/24 00:10:10;;;;;;;109.30;65.38;;;;;;;;;;4939586;29;20032;-36
2023/08/24 00:12:39;;;;;;;100.55;59.53;;;;;;;;;;4947508;29;20061;-36
2023/08/24 00:15:09;;;;;;;114.85;66.10;;;;;;;;;;4946149;28;20573;-35
2023/08/24 00:17:36;;;;;;;110.70;67.90;;;;;;;;;;4944498;28;20552;-36
2023/08/24 00:20:10;;;;;;;115.38;72.90;;;;;;;;;;4948499;28;20039;-35
2023/08/24 00:22:38;;;;;;;124.93;74.25;;;;;;;;;;4947075;29;20035;-36
2023/08/24 00:25:05;;;;;;;127.75;74.40;;;;;;;;;;4948447;29;20019;-35
2023/08/24 00:27:32;;;;;;;122.32;76.03;;;;;;;;;;4948928;28;20086;-35
2023/08/24 00:29:59;;;;;;;123.35;71.07;;;;;;;;;;4946908;28;20054;-36
2023/08/24 00:32:27;;;;;;;126.45;71.95;;;;;;;;;;4952046;29;20516;-36
2023/08/24 00:34:54;;;;;;;119.03;71.85;;;;;;;;;;4953022;28;20043;-35
2023/08/24 00:37:21;;;;;;;114.03;70.32;;;;;;;;;;4944348;29;20036;-36
2023/08/24 00:39:48;;;;;;;120.65;71.45;;;;;;;;;;4941660;28;20034;-36
2023/08/24 00:42:15;;;;;;;110.88;69.53;;;;;;;;;;4950222;29;20099;-36
2023/08/24 00:44:43;;;;;;;114.63;71.95;;;;;;;;;;4942277;29;20051;-35
2023/08/24 00:47:10;;;;;;;114.50;69.63;;;;;;;;;;4945362;29;20533;-36
2023/08/24 00:49:37;;;;;;;112.38;69.05;;;;;;;;;;4948363;29;20034;-35
2023/08/24 00:52:05;;;;;;;108.97;70.13;;;;;;;;;;4944884;29;20027;-35
2023/08/24 00:54:32;;;;;;;117.65;68.88;;;;;;;;;;4951121;29;20043;-35
2023/08/24 00:56:59;;;;;;;120.32;70.38;;;;;;;;;;4952901;29;20023;-35
2023/08/24 00:59:26;;;;;;;127.15;69.70;;;;;;;;;;4949481;29;20036;-35
2023/08/24 01:01:54;;;;;;;118.60;65.95;;;;;;;;;;4941796;29;20032;-35
2023/08/24 01:04:21;;;;;;;110.38;63.08;;;;;;;;;;4946388;28;20389;-35
2023/08/24 01:06:48;;;;;;;111.20;65.15;;;;;;;;;;4939938;29;20070;-36
2023/08/24 01:09:16;;;;;;;103.25;62.00;;;;;;;;;;4935424;29;20372;-35
2023/08/24 01:11:51;;;;;;;99.90;61.20;;;;;;;;;;4941220;29;20034;-36
2023/08/24 01:14:50;;;;;;;105.25;61.33;;;;;;;;;;4954775;29;20035;-36
2023/08/24 01:17:19;;;;;;;98.85;59.25;;;;;;;;;;4924021;29;20585;-36
2023/08/24 01:19:46;;;;;;;97.05;57.92;;;;;;;;;;4953032;29;20027;-35
2023/08/24 01:22:25;;;;;;;88.10;53.60;;;;;;;;;;4954001;28;20035;-35
2023/08/24 01:24:55;;;;;;;85.18;51.97;;;;;;;;;;4954609;29;20124;-36
2023/08/24 01:27:22;;;;;;;88.43;50.58;;;;;;;;;;4954287;28;20470;-35
2023/08/24 01:29:51;;;;;;;90.63;49.95;;;;;;;;;;4954798;28;20055;-36
2023/08/24 01:32:18;;;;;;;80.13;45.15;;;;;;;;;;4953939;28;20043;-36
2023/08/24 01:34:45;;;;;;;78.65;43.88;;;;;;;;;;4954231;29;20125;-36
2023/08/24 01:37:12;;;;;;;73.72;41.60;;;;;;;;;;4954566;28;20038;-36
2023/08/24 01:39:44;;;;;;;66.85;40.17;;;;;;;;;;4954307;29;20086;-35
2023/08/24 01:42:12;;;;;;;63.60;37.70;;;;;;;;;;4954305;29;20035;-36
2023/08/24 01:44:40;;;;;;;65.97;37.00;;;;;;;;;;4954332;29;20537;-36
2023/08/24 01:47:12;;;;;;;56.63;34.60;;;;;;;;;;4954475;29;20488;-35
2023/08/24 01:49:40;;;;;;;60.05;34.08;;;;;;;;;;4954390;29;20023;-35
2023/08/24 01:52:07;;;;;;;60.72;33.35;;;;;;;;;;4954067;29;20051;-38
2023/08/24 01:54:35;;;;;;;60.17;32.53;;;;;;;;;;4952727;28;20409;-35
2023/08/24 01:57:02;;;;;;;55.38;30.90;;;;;;;;;;4954419;29;20027;-35
2023/08/24 01:59:30;;;;;;;50.60;29.35;;;;;;;;;;4954223;29;20023;-36
2023/08/24 02:01:57;;;;;;;52.55;27.95;;;;;;;;;;4954028;29;20028;-36
2023/08/24 02:04:24;;;;;;;45.28;26.83;;;;;;;;;;4954048;29;20027;-35
2023/08/24 02:06:51;;;;;;;46.80;25.33;;;;;;;;;;4953857;29;20533;-35
2023/08/24 02:09:18;;;;;;;44.28;25.05;;;;;;;;;;4954076;29;20051;-35
2023/08/24 02:11:45;;;;;;;45.28;24.55;;;;;;;;;;4953692;29;20087;-35
2023/08/24 02:14:12;;;;;;;41.70;23.17;;;;;;;;;;4952593;29;20031;-36
2023/08/24 02:16:40;;;;;;;43.38;23.42;;;;;;;;;;4953290;29;20051;-36
2023/08/24 02:19:07;;;;;;;39.80;21.05;;;;;;;;;;4953907;29;20023;-36
2023/08/24 02:21:36;;;;;;;35.30;20.42;;;;;;;;;;4953827;29;20031;-35
2023/08/24 02:24:04;;;;;;;38.45;20.67;;;;;;;;;;4953731;29;20031;-35
2023/08/24 02:26:31;;;;;;;37.40;20.65;;;;;;;;;;4953525;29;20027;-36
2023/08/24 02:28:59;;;;;;;35.25;20.65;;;;;;;;;;4953673;29;20102;-35
2023/08/24 02:31:26;;;;;;;33.63;18.83;;;;;;;;;;4953898;29;20085;-35
2023/08/24 02:33:53;;;;;;;34.63;20.30;;;;;;;;;;4970964;28;20489;-36
2023/08/24 02:36:21;;;;;;;33.50;18.98;;;;;;;;;;4967094;28;20766;-35
2023/08/24 02:38:49;;;;;;;30.17;18.08;;;;;;;;;;4962108;28;20099;-35
2023/08/24 02:41:16;;;;;;;31.65;17.92;;;;;;;;;;4963588;28;20122;-35
2023/08/24 02:43:43;;;;;;;32.72;18.33;;;;;;;;;;4961577;28;20055;-35
2023/08/24 02:46:10;;;;;;;34.45;18.52;;;;;;;;;;4961807;28;20110;-35
2023/08/24 02:48:38;;;;;;;30.75;17.38;;;;;;;;;;4961746;28;20046;-35
2023/08/24 02:51:06;;;;;;;31.60;16.50;;;;;;;;;;4962116;28;20415;-35
2023/08/24 02:53:33;;;;;;;27.02;15.80;;;;;;;;;;4952741;29;20545;-35
2023/08/24 02:56:00;;;;;;;28.48;16.80;;;;;;;;;;4952906;29;20474;-35
2023/08/24 02:58:27;;;;;;;30.35;16.08;;;;;;;;;;4952993;29;20023;-35
2023/08/24 03:00:55;;;;;;;25.13;15.57;;;;;;;;;;4953062;29;20118;-35
2023/08/24 03:03:22;;;;;;;29.42;15.80;;;;;;;;;;4953600;29;20023;-35
2023/08/24 03:05:59;;;;;;;26.08;14.73;;;;;;;;;;4953534;29;20030;-35
2023/08/24 03:08:26;;;;;;;25.83;14.70;;;;;;;;;;4953608;29;20127;-35
2023/08/24 03:10:53;;;;;;;28.90;14.40;;;;;;;;;;4953545;29;20032;-35
2023/08/24 03:13:20;;;;;;;25.98;15.05;;;;;;;;;;4953500;29;20031;-35
2023/08/24 03:15:47;;;;;;;23.67;14.25;;;;;;;;;;4953473;29;20020;-35
2023/08/24 03:18:15;;;;;;;26.83;14.15;;;;;;;;;;4953384;29;20513;-35
2023/08/24 03:20:42;;;;;;;24.17;14.30;;;;;;;;;;4953447;29;20026;-35
2023/08/24 03:23:09;;;;;;;28.48;13.98;;;;;;;;;;4936100;29;20505;-35
2023/08/24 03:25:37;;;;;;;20.33;12.52;;;;;;;;;;4953408;29;20133;-35
2023/08/24 03:28:05;;;;;;;23.92;13.82;;;;;;;;;;4953030;29;20068;-35
2023/08/24 03:30:32;;;;;;;23.05;13.35;;;;;;;;;;4953415;29;20023;-35
2023/08/24 03:32:59;;;;;;;22.67;11.88;;;;;;;;;;4953415;29;20430;-35
2023/08/24 03:35:26;;;;;;;21.58;12.25;;;;;;;;;;4953114;29;20118;-35
2023/08/24 03:37:53;;;;;;;21.48;12.00;;;;;;;;;;4953299;29;20054;-35
2023/08/24 03:40:20;;;;;;;19.42;11.60;;;;;;;;;;4953296;29;20042;-35
2023/08/24 03:42:47;;;;;;;22.90;12.77;;;;;;;;;;4953345;29;20038;-35
2023/08/24 03:45:14;;;;;;;19.90;11.23;;;;;;;;;;4953212;29;20027;-35
2023/08/24 03:47:41;;;;;;;21.15;11.80;;;;;;;;;;4967987;28;20401;-35
2023/08/24 03:50:08;;;;;;;19.45;11.52;;;;;;;;;;4953245;29;20770;-35
2023/08/24 03:52:35;;;;;;;20.08;11.10;;;;;;;;;;4953252;29;20366;-35
2023/08/24 03:55:02;;;;;;;16.77;10.32;;;;;;;;;;4953711;28;20042;-35
2023/08/24 03:57:29;;;;;;;18.35;10.57;;;;;;;;;;4956815;29;20023;-35
2023/08/24 03:59:56;;;;;;;20.70;11.20;;;;;;;;;;4956851;29;20589;-35
2023/08/24 04:02:23;;;;;;;17.73;10.70;;;;;;;;;;4956812;29;20027;-35
2023/08/24 04:04:51;;;;;;;18.10;10.77;;;;;;;;;;4956679;29;20024;-35
2023/08/24 04:07:18;;;;;;;17.33;10.27;;;;;;;;;;4956538;29;20023;-35
2023/08/24 04:09:48;;;;;;;16.80;9.88;;;;;;;;;;4956672;29;20099;-35
2023/08/24 04:12:15;;;;;;;18.83;10.13;;;;;;;;;;4956583;29;20023;-35
2023/08/24 04:14:42;;;;;;;16.42;9.60;;;;;;;;;;4956396;29;20493;-35
2023/08/24 04:17:09;;;;;;;17.38;10.05;;;;;;;;;;4956415;29;20047;-35
2023/08/24 04:19:38;;;;;;;15.88;9.45;;;;;;;;;;4956490;29;20027;-35
2023/08/24 04:22:05;;;;;;;16.73;9.38;;;;;;;;;;4956446;29;20500;-35
2023/08/24 04:24:32;;;;;;;12.77;8.00;;;;;;;;;;4956242;29;20050;-35
2023/08/24 04:26:59;;;;;;;14.40;8.50;;;;;;;;;;4956307;29;20086;-35
2023/08/24 04:29:26;;;;;;;14.85;9.02;;;;;;;;;;4971011;28;20035;-35
2023/08/24 04:31:53;;;;;;;15.02;8.98;;;;;;;;;;4956270;29;20122;-35
2023/08/24 04:34:20;;;;;;;13.20;8.55;;;;;;;;;;4955927;29;20445;-35
2023/08/24 04:36:47;;;;;;;16.45;8.25;;;;;;;;;;4956192;29;20031;-35
2023/08/24 04:39:14;;;;;;;13.07;8.00;;;;;;;;;;4956139;29;20091;-35
2023/08/24 04:41:41;;;;;;;14.63;7.90;;;;;;;;;;4956104;29;20027;-35
2023/08/24 04:44:08;;;;;;;12.40;7.88;;;;;;;;;;4956236;29;20035;-35
2023/08/24 04:46:35;;;;;;;12.57;7.20;;;;;;;;;;4955960;29;20031;-35
2023/08/24 04:49:03;;;;;;;11.73;7.35;;;;;;;;;;4955997;29;20083;-35
2023/08/24 04:51:30;;;;;;;15.65;7.85;;;;;;;;;;4955719;29;20031;-35
2023/08/24 04:53:57;;;;;;;13.98;7.80;;;;;;;;;;4955789;29;20035;-35
2023/08/24 04:56:24;;;;;;;13.20;7.38;;;;;;;;;;4955637;29;20098;-35
2023/08/24 04:58:57;;;;;;;12.68;6.78;;;;;;;;;;4955903;29;20046;-35
2023/08/24 05:01:27;;;;;;;10.88;7.20;;;;;;;;;;4955707;29;20031;-35
2023/08/24 05:03:55;;;;;;;11.05;6.78;;;;;;;;;;4955640;29;20099;-35
2023/08/24 05:06:22;;;;;;;10.63;7.00;;;;;;;;;;4954901;28;20418;-35
2023/08/24 05:08:49;;;;;;;10.73;7.03;;;;;;;;;;4955326;29;20027;-35
2023/08/24 05:11:20;;;;;;;10.93;6.93;;;;;;;;;;4955565;29;20035;-35
2023/08/24 05:13:47;;;;;;;9.90;6.95;;;;;;;;;;4955392;29;20023;-35
2023/08/24 05:16:14;;;;;;;10.75;6.78;;;;;;;;;;4955358;29;20027;-35
2023/08/24 05:18:41;;;;;;;11.48;6.80;;;;;;;;;;4955273;29;20410;-35
2023/08/24 05:21:08;;;;;;;9.32;6.18;;;;;;;;;;4955381;29;20031;-35
2023/08/24 05:23:36;;;;;;;10.90;6.07;;;;;;;;;;4955271;29;20505;-35
2023/08/24 05:26:04;;;;;;;9.48;6.18;;;;;;;;;;4949425;29;20482;-35
2023/08/24 05:28:31;;;;;;;8.90;5.80;;;;;;;;;;4955305;29;20430;-35
2023/08/24 05:30:58;;;;;;;10.50;5.38;;;;;;;;;;4969849;28;20063;-35
2023/08/24 05:33:25;;;;;;;9.73;6.00;;;;;;;;;;4955120;29;20019;-35
2023/08/24 05:35:52;;;;;;;10.65;6.28;;;;;;;;;;4954932;29;20035;-35
2023/08/24 05:38:20;;;;;;;8.13;5.68;;;;;;;;;;4955058;29;20085;-35
2023/08/24 05:40:50;;;;;;;9.30;5.85;;;;;;;;;;4955022;29;20027;-35
2023/08/24 05:43:17;;;;;;;8.15;5.45;;;;;;;;;;4954947;29;20031;-35
2023/08/24 05:45:44;;;;;;;7.00;5.28;;;;;;;;;;4969597;28;20516;-35
2023/08/24 05:48:12;;;;;;;9.25;5.38;;;;;;;;;;4954842;29;20016;-35
2023/08/24 05:50:43;;;;;;;9.10;5.60;;;;;;;;;;4954863;29;20377;-35
2023/08/24 05:53:10;;;;;;;8.60;5.32;;;;;;;;;;4954806;29;20059;-35
2023/08/24 05:55:38;;;;;;;8.60;5.43;;;;;;;;;;4954577;29;20032;-35
2023/08/24 05:58:05;;;;;;;7.80;5.15;;;;;;;;;;4954731;29;20031;-35
2023/08/24 06:00:32;;;;;;;8.55;5.05;;;;;;;;;;4954774;29;20019;-35
2023/08/24 06:02:59;;;;;;;7.22;4.97;;;;;;;;;;4970511;28;20026;-35
2023/08/24 06:05:26;;;;;;;8.05;5.20;;;;;;;;;;4973527;28;20035;-35
2023/08/24 06:07:54;;;;;;;9.65;5.20;;;;;;;;;;4973797;28;20497;-35
2023/08/24 06:10:21;;;;;;;8.00;5.10;;;;;;;;;;4973703;28;20114;-35
2023/08/24 06:12:48;;;;;;;8.10;4.60;;;;;;;;;;4973731;28;20082;-35
2023/08/24 06:15:15;;;;;;;6.45;4.47;;;;;;;;;;4973569;28;20070;-35
2023/08/24 06:17:42;;;;;;;6.60;4.30;;;;;;;;;;4969038;28;20051;-35
2023/08/24 06:20:10;;;;;;;9.25;4.50;;;;;;;;;;4954379;29;20055;-35
2023/08/24 06:22:37;;;;;;;7.63;4.82;;;;;;;;;;4954283;29;20023;-35
2023/08/24 06:25:05;;;;;;;8.10;4.78;;;;;;;;;;4954087;29;20027;-35
2023/08/24 06:27:31;;;;;;;7.47;4.85;;;;;;;;;;4954179;29;20074;-35
2023/08/24 06:29:58;;;;;;;7.10;4.57;;;;;;;;;;4954188;29;20509;-35
2023/08/24 06:32:25;;;;;;;7.93;4.72;;;;;;;;;;4954004;29;20023;-35
2023/08/24 06:34:54;;;;;;;7.07;4.40;;;;;;;;;;4953911;29;20032;-35
2023/08/24 06:37:21;;;;;;;6.95;4.40;;;;;;;;;;4953893;29;20031;-35
2023/08/24 06:39:47;;;;;;;5.93;4.07;;;;;;;;;;4954018;29;20507;-35
2023/08/24 06:42:14;;;;;;;7.47;4.68;;;;;;;;;;4953946;29;20019;-35
2023/08/24 06:44:41;;;;;;;6.07;4.22;;;;;;;;;;4953646;29;20027;-35
2023/08/24 06:47:08;;;;;;;6.28;4.07;;;;;;;;;;4953929;29;20035;-35
2023/08/24 06:49:35;;;;;;;6.72;4.38;;;;;;;;;;4953871;29;20023;-35
2023/08/24 06:52:03;;;;;;;8.55;4.80;;;;;;;;;;4953774;29;20031;-35
2023/08/24 06:54:30;;;;;;;6.90;4.15;;;;;;;;;;4953426;29;20039;-35
2023/08/24 06:56:57;;;;;;;6.72;4.28;;;;;;;;;;4953732;29;20082;-35
2023/08/24 06:59:24;;;;;;;5.70;3.72;;;;;;;;;;4953753;29;20027;-35
2023/08/24 07:01:52;;;;;;;5.47;3.75;;;;;;;;;;4953747;29;20023;-35
2023/08/24 07:04:19;;;;;;;7.95;3.78;;;;;;;;;;4953624;29;20030;-35
2023/08/24 07:06:46;;;;;;;5.72;3.92;;;;;;;;;;4953696;29;20498;-35
2023/08/24 07:09:13;;;;;;;4.78;3.38;;;;;;;;;;4953601;29;20034;-35
2023/08/24 07:11:40;;;;;;;5.55;3.90;;;;;;;;;;4953594;29;20027;-35
2023/08/24 07:14:07;;;;;;;5.22;3.67;;;;;;;;;;4953398;29;20035;-35
2023/08/24 07:16:33;;;;;;;5.38;4.07;;;;;;;;;;4953287;29;20146;-35
2023/08/24 07:19:02;;;;;;;5.97;3.90;;;;;;;;;;4953530;29;20047;-35
2023/08/24 07:21:30;;;;;;;4.80;3.50;;;;;;;;;;4953357;29;20038;-35
2023/08/24 07:23:57;;;;;;;4.80;3.47;;;;;;;;;;4953399;29;20039;-35
2023/08/24 07:26:25;;;;;;;5.20;3.85;;;;;;;;;;4953413;29;20031;-35
2023/08/24 07:28:52;;;;;;;5.20;3.65;;;;;;;;;;4953309;29;20035;-35
2023/08/24 07:31:19;;;;;;;4.97;3.22;;;;;;;;;;4956251;28;20027;-35
2023/08/24 07:33:46;;;;;;;4.53;2.88;;;;;;;;;;4957261;29;20031;-35
2023/08/24 07:36:13;;;;;;;5.63;3.50;;;;;;;;;;4957227;29;20030;-35
2023/08/24 07:38:40;;;;;;;5.50;3.35;;;;;;;;;;4957279;29;20034;-35
2023/08/24 07:41:09;;;;;;;5.45;3.10;;;;;;;;;;4957200;29;20051;-35
2023/08/24 07:43:36;;;;;;;5.38;3.55;;;;;;;;;;4956983;29;20098;-35
2023/08/24 07:46:03;;;;;;;4.45;3.35;;;;;;;;;;4957109;29;20388;-35
2023/08/24 07:48:30;;;;;;;5.22;3.17;;;;;;;;;;4957065;29;20023;-35
2023/08/24 07:50:57;;;;;;;4.80;3.00;;;;;;;;;;4957055;29;20113;-35
2023/08/24 07:53:24;;;;;;;4.60;2.90;;;;;;;;;;4956976;29;20031;-35
2023/08/24 07:55:51;;;;;;;4.40;2.88;;;;;;;;;;4956848;29;20414;-35
2023/08/24 07:58:18;;;;;;;4.13;2.67;;;;;;;;;;4956856;29;20027;-35
2023/08/24 08:00:46;;;;;;;4.05;2.60;;;;;;;;;;4956778;29;20023;-35
2023/08/24 08:03:13;;;;;;;4.00;2.78;;;;;;;;;;4956727;29;20023;-35
2023/08/24 08:05:40;;;;;;;3.58;2.80;;;;;;;;;;4956717;29;20055;-35
2023/08/24 08:08:07;;;;;;;4.70;2.85;;;;;;;;;;4957019;29;20377;-35
2023/08/24 08:10:34;;;;;;;4.75;2.92;;;;;;;;;;4956708;29;20493;-35
2023/08/24 08:13:01;;;;;;;3.60;2.60;;;;;;;;;;4956628;29;20024;-35
2023/08/24 08:15:28;;;;;;;3.75;2.35;;;;;;;;;;4939028;29;20032;-35
2023/08/24 08:17:55;;;;;;;4.38;2.92;;;;;;;;;;4956439;29;20525;-35
2023/08/24 08:20:22;;;;;;;3.50;2.72;;;;;;;;;;4956551;29;20023;-35
2023/08/24 08:22:50;;;;;;;4.05;2.80;;;;;;;;;;4956409;29;20031;-35
2023/08/24 08:25:21;;;;;;;3.88;2.92;;;;;;;;;;4956223;29;20043;-35
2023/08/24 08:27:49;;;;;;;4.65;2.95;;;;;;;;;;4956249;29;20565;-35
2023/08/24 08:30:16;;;;;;;3.58;2.50;;;;;;;;;;4956325;29;20046;-35
2023/08/24 08:32:43;;;;;;;4.05;2.85;;;;;;;;;;4956245;29;20082;-35
2023/08/24 08:35:10;;;;;;;4.63;3.13;;;;;;;;;;4956078;29;20043;-35
2023/08/24 08:37:37;;;;;;;3.83;2.72;;;;;;;;;;4956223;29;20172;-35
2023/08/24 08:40:09;;;;;;;4.47;3.15;;;;;;;;;;4956137;29;20038;-35
2023/08/24 08:42:36;;;;;;;4.30;3.05;;;;;;;;;;4956066;28;20039;-35
2023/08/24 08:45:05;;;;;;;5.28;3.10;;;;;;;;;;4955989;29;20846;-35
2023/08/24 08:47:32;;;;;;;4.53;3.08;;;;;;;;;;4956042;29;20043;-35
2023/08/24 08:50:01;;;;;;;3.95;3.00;;;;;;;;;;4938688;29;20505;-35
2023/08/24 08:52:28;;;;;;;4.32;3.38;;;;;;;;;;4955884;29;20063;-35
2023/08/24 08:54:55;;;;;;;4.55;3.15;;;;;;;;;;4955609;29;20043;-35
2023/08/24 08:57:24;;;;;;;5.18;3.42;;;;;;;;;;4955871;29;20393;-35
2023/08/24 08:59:52;;;;;;;4.10;3.00;;;;;;;;;;4955815;29;20038;-35
2023/08/24 09:02:20;;;;;;;5.35;3.28;;;;;;;;;;4955536;29;20075;-35
2023/08/24 09:04:48;;;;;;;5.18;3.25;;;;;;;;;;4955525;29;20027;-35
2023/08/24 09:07:16;;;;;;;4.85;3.20;;;;;;;;;;4955101;29;20470;-35
2023/08/24 09:09:43;;;;;;;5.28;3.30;;;;;;;;;;4955175;29;20625;-35
2023/08/24 09:12:10;;;;;;;4.07;3.30;;;;;;;;;;4955491;29;20493;-35
2023/08/24 09:14:37;;;;;;;6.57;3.40;;;;;;;;;;4955426;29;20494;-35
2023/08/24 09:17:05;;;;;;;5.93;3.45;;;;;;;;;;4955099;29;20077;-35
2023/08/24 09:19:32;;;;;;;5.32;3.05;;;;;;;;;;4954837;29;20035;-35
2023/08/24 09:22:00;;;;;;;5.70;3.00;;;;;;;;;;4954720;29;20035;-36
2023/08/24 09:24:31;;;;;;;5.72;3.35;;;;;;;;;;4954500;29;20118;-35
2023/08/24 09:26:59;;;;;;;5.20;3.60;;;;;;;;;;4954681;29;20499;-35
2023/08/24 09:29:26;;;;;;;7.97;3.35;;;;;;;;;;4954586;29;20118;-36
2023/08/24 09:31:53;;;;;;;6.50;3.20;;;;;;;;;;4955248;29;20035;-36
2023/08/24 09:34:21;;;;;;;5.00;2.72;;;;;;;;;;4954317;29;20434;-36
2023/08/24 09:36:48;;;;;;;9.27;3.47;;;;;;;;;;4954445;29;20496;-36
2023/08/24 09:39:19;;;;;;;4.78;2.85;;;;;;;;;;4953855;29;20130;-35
2023/08/24 09:41:49;;;;;;;8.13;3.03;;;;;;;;;;4954481;29;20039;-36
2023/08/24 09:44:19;;;;;;;10.38;3.60;;;;;;;;;;4954595;29;20114;-36
2023/08/24 09:46:46;;;;;;;7.00;2.90;;;;;;;;;;4954551;29;20074;-36
2023/08/24 09:49:13;;;;;;;8.05;3.00;;;;;;;;;;4954954;29;20533;-36
2023/08/24 09:51:44;;;;;;;5.22;2.85;;;;;;;;;;4954731;29;20127;-36
2023/08/24 09:54:13;;;;;;;6.53;2.92;;;;;;;;;;4954168;28;20043;-36
2023/08/24 09:56:41;;;;;;;6.07;3.20;;;;;;;;;;4954658;29;20031;-36
2023/08/24 09:59:24;;;;;;;7.72;2.90;;;;;;;;;;4954580;29;20031;-36
2023/08/24 10:01:54;;;;;;;9.07;2.80;;;;;;;;;;4954841;29;20061;-36
2023/08/24 10:04:26;;;;;;;5.60;2.72;;;;;;;;;;4954266;29;20470;-36
2023/08/24 10:06:56;;;;;;;17.20;3.75;;;;;;;;;;4947388;29;20027;-42
2023/08/24 10:09:26;;;;;;;16.08;3.20;;;;;;;;;;4953668;29;20039;-34
2023/08/24 10:12:00;;;;;;;11.57;3.53;;;;;;;;;;4952677;29;20106;-34
2023/08/24 10:14:27;;;;;;;7.80;3.00;;;;;;;;;;4950431;28;20050;-35
2023/08/24 10:16:55;;;;;;;9.95;2.72;;;;;;;;;;4952648;29;20043;-34
2023/08/24 10:19:23;;;;;;;7.00;2.55;;;;;;;;;;4952268;29;20047;-36
2023/08/24 10:21:51;;;;;;;8.48;2.90;;;;;;;;;;4951650;29;20038;-39
2023/08/24 10:24:20;;;;;;;8.75;2.92;;;;;;;;;;4953283;29;20031;-37
2023/08/24 10:26:48;;;;;;;6.97;3.00;;;;;;;;;;4953265;29;20039;-37
2023/08/24 10:29:15;;;;;;;8.02;2.80;;;;;;;;;;4952304;29;20043;-37
2023/08/24 10:31:43;;;;;;;9.18;2.80;;;;;;;;;;4952900;29;20030;-34
2023/08/24 10:34:11;;;;;;;7.47;2.90;;;;;;;;;;4953204;29;20122;-35
2023/08/24 10:36:41;;;;;;;7.53;2.60;;;;;;;;;;4953134;29;20496;-35
2023/08/24 10:39:08;;;;;;;10.32;2.65;;;;;;;;;;4951586;29;20027;-34
2023/08/24 10:41:51;;;;;;;8.32;2.60;;;;;;;;;;4953313;29;20038;-35
2023/08/24 10:44:22;;;;;;;10.75;2.60;;;;;;;;;;4951371;29;20095;-35
2023/08/24 10:47:18;;;;;;;11.35;2.75;;;;;;;;;;4952686;29;20038;-35
2023/08/24 10:49:57;;;;;;;7.10;2.42;;;;;;;;;;4938026;29;20054;-34
2023/08/24 10:52:24;;;;;;;8.15;2.40;;;;;;;;;;4951952;29;20031;-35
2023/08/24 10:54:52;;;;;;;7.50;2.45;;;;;;;;;;4952439;29;20130;-36
2023/08/24 10:57:35;;;;;;;12.38;2.80;;;;;;;;;;4953111;29;20031;-35
2023/08/24 11:00:09;;;;;;;8.88;2.40;;;;;;;;;;4949988;29;20494;-34
2023/08/24 11:02:45;;;;;;;7.25;2.47;;;;;;;;;;4950724;28;20087;-35
2023/08/24 11:05:35;;;;;;;7.30;2.42;;;;;;;;;;4951848;28;20438;-35
2023/08/24 11:08:05;;;;;;;9.65;2.30;;;;;;;;;;4950631;29;20565;-34
2023/08/24 11:10:49;;;;;;;8.20;2.53;;;;;;;;;;4951120;29;20106;-35
2023/08/24 11:13:16;;;;;;;9.23;2.67;;;;;;;;;;4950443;29;20081;-35
2023/08/24 11:15:47;;;;;;;9.85;2.58;;;;;;;;;;4952736;29;20545;-34
2023/08/24 11:18:21;;;;;;;12.18;2.60;;;;;;;;;;4952735;29;20076;-35
2023/08/24 11:20:50;;;;;;;6.85;2.15;;;;;;;;;;4951941;29;20050;-34
2023/08/24 11:23:17;;;;;;;13.98;2.80;;;;;;;;;;4951765;29;20377;-35
2023/08/24 11:25:44;;;;;;;7.55;2.20;;;;;;;;;;4952650;29;20555;-34
2023/08/24 11:28:11;;;;;;;9.35;2.20;;;;;;;;;;4951878;29;20062;-35
2023/08/24 11:30:38;;;;;;;7.13;2.05;;;;;;;;;;4952254;29;20031;-34
2023/08/24 11:33:05;;;;;;;5.82;1.90;;;;;;;;;;4950911;29;20087;-34
2023/08/24 11:35:37;;;;;;;5.40;2.17;;;;;;;;;;4952297;29;20083;-33
2023/08/24 11:38:04;;;;;;;11.88;1.90;;;;;;;;;;4952620;29;20521;-36
2023/08/24 11:40:31;;;;;;;5.28;1.92;;;;;;;;;;4951837;29;20485;-36
2023/08/24 11:42:58;;;;;;;8.38;2.17;;;;;;;;;;4951150;29;20031;-36
2023/08/24 11:45:30;;;;;;;8.90;2.13;;;;;;;;;;4949421;29;20552;-36
2023/08/24 11:48:09;;;;;;;8.85;2.08;;;;;;;;;;4952330;29;20050;-35
2023/08/24 11:50:38;;;;;;;7.22;2.05;;;;;;;;;;4951827;29;20528;-34
2023/08/24 11:53:07;;;;;;;8.40;2.10;;;;;;;;;;4950975;29;20039;-35
2023/08/24 11:55:34;;;;;;;11.00;2.30;;;;;;;;;;4952039;29;20050;-35
2023/08/24 11:58:01;;;;;;;5.45;1.80;;;;;;;;;;4934671;29;20445;-38
2023/08/24 12:00:30;;;;;;;9.93;2.10;;;;;;;;;;4951585;29;20402;-38
2023/08/24 12:02:58;;;;;;;6.20;1.70;;;;;;;;;;4952220;29;20043;-38
2023/08/24 12:05:26;;;;;;;6.55;1.95;;;;;;;;;;4950368;29;20552;-38
2023/08/24 12:07:54;;;;;;;6.53;1.70;;;;;;;;;;4951676;29;20027;-38
2023/08/24 12:10:21;;;;;;;9.23;2.03;;;;;;;;;;4950883;29;20508;-38
2023/08/24 12:12:48;;;;;;;20.35;3.20;;;;;;;;;;4949142;28;20478;-38
2023/08/24 12:15:21;;;;;;;9.70;2.38;;;;;;;;;;4947346;29;20043;-35
2023/08/24 12:17:48;;;;;;;7.35;2.05;;;;;;;;;;4950607;28;20047;-38
2023/08/24 12:20:21;;;;;;;9.23;2.28;;;;;;;;;;4937861;29;20036;-37
2023/08/24 12:22:55;;;;;;;11.38;1.85;;;;;;;;;;4948832;28;20034;-38
2023/08/24 12:25:25;;;;;;;14.32;2.00;;;;;;;;;;4961144;28;20681;-39
2023/08/24 12:27:53;;;;;;;13.35;2.20;;;;;;;;;;4954740;29;20035;-38
2023/08/24 12:30:21;;;;;;;11.13;1.75;;;;;;;;;;4954707;29;20074;-39
2023/08/24 12:32:50;;;;;;;5.40;1.73;;;;;;;;;;4956253;29;20046;-39
2023/08/24 12:35:17;;;;;;;7.32;2.20;;;;;;;;;;4955523;29;20043;-38
2023/08/24 12:37:44;;;;;;;10.43;2.03;;;;;;;;;;4954109;29;20119;-39
2023/08/24 12:40:11;;;;;;;7.93;2.03;;;;;;;;;;4955880;29;20066;-39
2023/08/24 12:42:39;;;;;;;13.25;1.90;;;;;;;;;;4956178;29;20019;-39
2023/08/24 12:45:06;;;;;;;9.80;2.55;;;;;;;;;;4955818;29;20035;-38
2023/08/24 12:47:37;;;;;;;7.30;1.67;;;;;;;;;;4955710;29;20031;-38
2023/08/24 12:50:05;;;;;;;6.88;2.00;;;;;;;;;;4955931;29;20493;-38
2023/08/24 12:52:32;;;;;;;8.60;2.08;;;;;;;;;;4955919;29;20111;-38
2023/08/24 12:54:59;;;;;;;4.93;1.73;;;;;;;;;;4955870;29;20031;-38
2023/08/24 12:57:26;;;;;;;7.05;1.70;;;;;;;;;;4955849;29;20397;-40
2023/08/24 12:59:54;;;;;;;5.43;2.00;;;;;;;;;;4955904;29;20024;-38
2023/08/24 13:02:21;;;;;;;6.43;1.52;;;;;;;;;;4955665;29;20150;-39
2023/08/24 13:04:48;;;;;;;4.00;1.33;;;;;;;;;;4955693;29;20049;-38
2023/08/24 13:07:15;;;;;;;5.95;1.60;;;;;;;;;;4955749;29;20051;-39
2023/08/24 13:09:42;;;;;;;3.17;1.48;;;;;;;;;;4955615;29;20027;-39
2023/08/24 13:12:09;;;;;;;4.70;1.83;;;;;;;;;;4955671;29;20393;-37
2023/08/24 13:14:36;;;;;;;7.90;1.70;;;;;;;;;;4955448;29;20043;-38
2023/08/24 13:17:03;;;;;;;5.50;1.50;;;;;;;;;;4955467;29;20062;-38
2023/08/24 13:19:30;;;;;;;3.97;1.48;;;;;;;;;;4955544;29;20034;-38
2023/08/24 13:21:57;;;;;;;4.70;1.33;;;;;;;;;;4955516;29;20039;-37
2023/08/24 13:24:24;;;;;;;3.70;1.50;;;;;;;;;;4955340;29;20545;-38
2023/08/24 13:26:51;;;;;;;4.95;1.50;;;;;;;;;;4955271;29;20409;-38
2023/08/24 13:29:18;;;;;;;6.20;1.40;;;;;;;;;;4954358;28;20481;-38
2023/08/24 13:31:45;;;;;;;4.50;1.55;;;;;;;;;;4955349;29;20478;-38
2023/08/24 13:34:12;;;;;;;7.13;1.38;;;;;;;;;;4955109;29;20035;-38
2023/08/24 13:36:39;;;;;;;3.88;1.42;;;;;;;;;;4955215;29;20481;-37
2023/08/24 13:39:06;;;;;;;4.72;1.33;;;;;;;;;;4955171;29;20034;-38
2023/08/24 13:41:33;;;;;;;3.75;1.20;;;;;;;;;;4954966;29;20426;-38
2023/08/24 13:44:00;;;;;;;7.82;1.35;;;;;;;;;;4954972;29;20027;-38
2023/08/24 13:46:27;;;;;;;4.63;1.05;;;;;;;;;;4955036;29;20027;-38
2023/08/24 13:48:54;;;;;;;3.95;1.20;;;;;;;;;;4954887;29;20486;-38
2023/08/24 13:51:21;;;;;;;1.98;0.90;;;;;;;;;;4954920;29;20034;-37
2023/08/24 13:53:48;;;;;;;3.72;1.35;;;;;;;;;;4954702;29;20473;-38
2023/08/24 13:56:15;;;;;;;2.58;1.17;;;;;;;;;;4954861;29;20039;-38
2023/08/24 13:58:42;;;;;;;3.72;1.30;;;;;;;;;;4954836;29;20031;-38
2023/08/24 14:01:10;;;;;;;4.25;1.10;;;;;;;;;;4954738;29;20098;-38
2023/08/24 14:03:38;;;;;;;3.65;1.20;;;;;;;;;;4954652;29;20027;-38
2023/08/24 14:06:05;;;;;;;2.55;1.17;;;;;;;;;;4954683;29;20111;-38
2023/08/24 14:08:32;;;;;;;4.15;1.08;;;;;;;;;;4954638;29;20031;-38
2023/08/24 14:10:59;;;;;;;3.38;1.20;;;;;;;;;;4954505;29;20094;-38
2023/08/24 14:13:26;;;;;;;4.28;1.20;;;;;;;;;;4954484;29;20470;-38
2023/08/24 14:15:53;;;;;;;2.70;1.10;;;;;;;;;;4954403;29;20478;-39
2023/08/24 14:18:20;;;;;;;2.45;1.10;;;;;;;;;;4954243;29;20047;-38
2023/08/24 14:20:47;;;;;;;4.20;1.25;;;;;;;;;;4954210;29;20071;-38
2023/08/24 14:23:14;;;;;;;2.92;1.17;;;;;;;;;;4954330;29;20031;-38
2023/08/24 14:25:41;;;;;;;2.97;1.10;;;;;;;;;;4951212;28;20043;-38
2023/08/24 14:28:08;;;;;;;2.65;1.10;;;;;;;;;;4954243;29;20023;-38
2023/08/24 14:30:35;;;;;;;2.08;0.85;;;;;;;;;;4954272;29;20058;-39
2023/08/24 14:33:02;;;;;;;2.55;1.10;;;;;;;;;;4954192;29;20038;-38
2023/08/24 14:35:29;;;;;;;3.88;1.30;;;;;;;;;;4953948;29;20062;-38
2023/08/24 14:37:55;;;;;;;2.10;1.00;;;;;;;;;;4954123;29;20545;-38